createdAt,value
2017-05-19T00:00:05.244Z,21.92
2017-05-19T00:00:26.936Z,21.94
2017-05-19T00:00:48.811Z,21.95
2017-05-19T00:01:10.536Z,21.95
2017-05-19T00:01:32.303Z,21.99
2017-05-19T00:01:54.106Z,22.03
2017-05-19T00:02:16.095Z,21.98
2017-05-19T00:02:37.849Z,21.98
2017-05-19T00:02:59.625Z,21.95
2017-05-19T00:04:07.094Z,21.43
2017-05-19T00:04:28.878Z,21.25
2017-05-19T00:04:50.660Z,21.03
2017-05-19T00:05:12.543Z,21.02
2017-05-19T00:05:34.260Z,21.11
2017-05-19T00:05:56.005Z,21.22
2017-05-19T00:06:17.901Z,21.22
2017-05-19T00:06:39.711Z,21.05
2017-05-19T00:07:01.601Z,20.94
2017-05-19T00:07:23.369Z,21.01
2017-05-19T00:07:45.173Z,21.05
2017-05-19T00:08:07.111Z,20.75
2017-05-19T00:08:28.858Z,20.69
2017-05-19T00:08:50.679Z,20.63
2017-05-19T00:09:12.556Z,20.59
2017-05-19T00:09:34.507Z,20.66
2017-05-19T00:10:37.007Z,20.39
2017-05-19T00:10:58.719Z,20.44
2017-05-19T00:11:20.524Z,20.36
2017-05-19T00:11:42.268Z,20.45
2017-05-19T00:12:04.016Z,20.51
2017-05-19T00:12:25.750Z,20.63
2017-05-19T00:12:47.462Z,20.71
2017-05-19T00:13:09.158Z,20.83
2017-05-19T00:13:30.915Z,20.98
2017-05-19T00:13:52.618Z,21.01
2017-05-19T00:14:14.393Z,21.08
2017-05-19T00:14:36.255Z,21.06
2017-05-19T00:14:58.042Z,21.05
2017-05-19T00:15:19.730Z,21.09
2017-05-19T00:15:41.723Z,21.09
2017-05-19T00:16:03.585Z,21.15
2017-05-19T00:16:25.285Z,21.00
2017-05-19T00:16:47.208Z,21.02
2017-05-19T00:17:08.962Z,21.05
2017-05-19T00:17:30.946Z,21.15
2017-05-19T00:17:52.641Z,21.18
2017-05-19T00:18:14.362Z,21.25
2017-05-19T00:18:36.109Z,21.25
2017-05-19T00:18:57.825Z,21.31
2017-05-19T00:19:20.071Z,21.26
2017-05-19T00:19:44.689Z,21.27
2017-05-19T00:20:06.604Z,21.33
2017-05-19T00:20:28.285Z,21.27
2017-05-19T00:20:50.076Z,21.09
2017-05-19T00:21:11.798Z,21.03
2017-05-19T00:21:33.496Z,20.94
2017-05-19T00:21:55.359Z,20.96
2017-05-19T00:22:17.311Z,21.00
2017-05-19T00:22:39.211Z,21.05
2017-05-19T00:23:01.093Z,21.16
2017-05-19T00:23:22.937Z,21.24
2017-05-19T00:23:44.634Z,21.31
2017-05-19T00:24:06.607Z,21.31
2017-05-19T00:24:28.495Z,21.27
2017-05-19T00:24:55.376Z,21.12
2017-05-19T00:25:17.137Z,21.11
2017-05-19T00:25:38.873Z,21.16
2017-05-19T00:26:00.609Z,21.22
2017-05-19T00:26:22.392Z,21.30
2017-05-19T00:26:44.104Z,21.31
2017-05-19T00:27:06.054Z,21.36
2017-05-19T00:27:27.763Z,21.31
2017-05-19T00:27:52.521Z,21.27
2017-05-19T00:28:14.343Z,21.31
2017-05-19T00:28:36.168Z,21.36
2017-05-19T00:28:57.879Z,21.40
2017-05-19T00:29:19.718Z,21.39
2017-05-19T00:29:41.429Z,21.34
2017-05-19T00:30:03.194Z,21.28
2017-05-19T00:30:24.898Z,21.17
2017-05-19T00:30:46.603Z,21.26
2017-05-19T00:31:11.155Z,21.26
2017-05-19T00:31:32.953Z,21.16
2017-05-19T00:31:54.742Z,21.06
2017-05-19T00:32:16.603Z,21.04
2017-05-19T00:32:38.439Z,21.05
2017-05-19T00:33:00.199Z,21.14
2017-05-19T00:33:22.199Z,21.14
2017-05-19T00:33:43.814Z,21.22
2017-05-19T00:34:05.614Z,21.26
2017-05-19T00:34:27.381Z,21.37
2017-05-19T00:34:49.122Z,21.44
2017-05-19T00:35:10.857Z,21.42
2017-05-19T00:35:32.727Z,21.38
2017-05-19T00:35:54.456Z,21.40
2017-05-19T00:36:16.234Z,21.38
2017-05-19T00:36:50.221Z,21.48
2017-05-19T00:37:12.010Z,21.46
2017-05-19T00:37:33.799Z,21.45
2017-05-19T00:37:55.578Z,21.50
2017-05-19T00:38:17.419Z,21.57
2017-05-19T00:38:39.294Z,21.57
2017-05-19T00:39:01.000Z,21.43
2017-05-19T00:39:22.714Z,21.42
2017-05-19T00:39:44.414Z,21.42
2017-05-19T00:40:06.153Z,21.40
2017-05-19T00:40:27.885Z,21.41
2017-05-19T00:40:49.584Z,21.34
2017-05-19T00:41:11.332Z,21.26
2017-05-19T00:41:33.075Z,21.17
2017-05-19T00:41:55.219Z,21.15
2017-05-19T00:42:16.939Z,21.03
2017-05-19T00:42:38.701Z,20.99
2017-05-19T00:43:00.445Z,20.92
2017-05-19T00:43:22.213Z,20.98
2017-05-19T00:43:44.313Z,20.90
2017-05-19T00:44:06.339Z,20.82
2017-05-19T00:44:28.146Z,20.78
2017-05-19T00:44:49.920Z,20.84
2017-05-19T00:45:38.195Z,20.88
2017-05-19T00:46:00.033Z,20.83
2017-05-19T00:46:21.844Z,20.88
2017-05-19T00:46:43.796Z,20.96
2017-05-19T00:47:05.637Z,21.03
2017-05-19T00:47:27.528Z,20.91
2017-05-19T00:47:49.232Z,21.00
2017-05-19T00:48:10.986Z,21.10
2017-05-19T00:48:32.756Z,21.16
2017-05-19T00:48:54.467Z,21.11
2017-05-19T00:49:16.871Z,20.97
2017-05-19T00:50:19.390Z,20.98
2017-05-19T00:50:41.225Z,20.95
2017-05-19T00:51:05.831Z,21.02
2017-05-19T00:51:27.583Z,21.05
2017-05-19T00:51:49.337Z,20.89
2017-05-19T00:52:11.065Z,20.90
2017-05-19T00:52:33.136Z,20.93
2017-05-19T00:52:59.747Z,20.96
2017-05-19T00:53:21.447Z,21.02
2017-05-19T00:53:43.240Z,21.02
2017-05-19T00:54:04.980Z,21.06
2017-05-19T00:54:27.250Z,21.13
2017-05-19T00:54:49.016Z,21.11
2017-05-19T00:55:11.130Z,21.10
2017-05-19T00:55:32.831Z,20.97
2017-05-19T00:55:54.566Z,20.82
2017-05-19T00:56:16.531Z,20.75
2017-05-19T00:56:38.379Z,20.69
2017-05-19T00:57:00.177Z,20.78
2017-05-19T00:57:21.957Z,20.77
2017-05-19T00:57:43.848Z,20.73
2017-05-19T00:58:05.576Z,20.72
2017-05-19T00:58:27.289Z,20.73
2017-05-19T00:58:49.090Z,20.78
2017-05-19T00:59:10.802Z,20.83
2017-05-19T00:59:59.012Z,20.97
2017-05-19T01:00:20.710Z,20.80
2017-05-19T01:00:42.450Z,20.77
2017-05-19T01:01:05.298Z,20.80
2017-05-19T01:01:36.563Z,20.86
2017-05-19T01:02:03.182Z,20.87
2017-05-19T01:02:27.702Z,20.95
2017-05-19T01:02:49.791Z,20.91
2017-05-19T01:03:14.896Z,20.79
2017-05-19T01:03:36.734Z,20.75
2017-05-19T01:03:58.441Z,20.79
2017-05-19T01:04:20.371Z,20.63
2017-05-19T01:04:44.679Z,20.51
2017-05-19T01:05:09.004Z,20.51
2017-05-19T01:05:45.164Z,20.28
2017-05-19T01:06:07.635Z,20.32
2017-05-19T01:07:00.795Z,20.42
2017-05-19T01:07:22.617Z,20.41
2017-05-19T01:07:44.631Z,20.43
2017-05-19T01:08:06.428Z,20.43
2017-05-19T01:08:28.304Z,20.44
2017-05-19T01:08:50.244Z,20.42
2017-05-19T01:09:12.029Z,20.49
2017-05-19T01:09:33.805Z,20.57
2017-05-19T01:09:58.242Z,20.43
2017-05-19T01:10:20.300Z,20.41
2017-05-19T01:10:42.024Z,20.41
2017-05-19T01:11:03.808Z,20.47
2017-05-19T01:11:25.618Z,20.43
2017-05-19T01:11:49.987Z,20.45
2017-05-19T01:12:16.549Z,20.29
2017-05-19T01:12:47.817Z,20.27
2017-05-19T01:13:09.566Z,20.25
2017-05-19T01:13:31.387Z,20.31
2017-05-19T01:14:02.654Z,20.33
2017-05-19T01:14:24.557Z,20.35
2017-05-19T01:14:46.379Z,20.40
2017-05-19T01:15:08.198Z,20.44
2017-05-19T01:15:30.045Z,20.30
2017-05-19T01:15:51.805Z,20.10
2017-05-19T01:16:15.860Z,20.12
2017-05-19T01:16:37.498Z,20.22
2017-05-19T01:16:59.286Z,20.34
2017-05-19T01:17:21.008Z,20.38
2017-05-19T01:17:42.807Z,20.42
2017-05-19T01:18:04.576Z,20.53
2017-05-19T01:18:26.299Z,20.51
2017-05-19T01:19:28.884Z,20.40
2017-05-19T01:19:50.644Z,20.38
2017-05-19T01:20:12.521Z,20.37
2017-05-19T01:20:34.312Z,20.40
2017-05-19T01:20:56.130Z,20.48
2017-05-19T01:21:17.918Z,20.57
2017-05-19T01:22:06.273Z,20.39
2017-05-19T01:22:28.018Z,20.41
2017-05-19T01:22:49.847Z,20.40
2017-05-19T01:23:16.400Z,20.39
2017-05-19T01:23:38.132Z,20.44
2017-05-19T01:23:59.823Z,20.47
2017-05-19T01:24:21.599Z,20.48
2017-05-19T01:24:43.384Z,20.44
2017-05-19T01:25:05.104Z,20.42
2017-05-19T01:25:58.287Z,20.10
2017-05-19T01:26:20.039Z,19.98
2017-05-19T01:26:41.790Z,19.92
2017-05-19T01:27:08.293Z,19.84
2017-05-19T01:27:30.060Z,19.77
2017-05-19T01:27:51.815Z,19.82
2017-05-19T01:28:13.612Z,19.73
2017-05-19T01:28:35.433Z,19.67
2017-05-19T01:28:57.155Z,19.67
2017-05-19T01:29:18.944Z,19.73
2017-05-19T01:29:40.753Z,19.71
2017-05-19T01:30:02.544Z,19.73
2017-05-19T01:30:24.343Z,19.74
2017-05-19T01:30:46.238Z,19.84
2017-05-19T01:31:07.980Z,19.87
2017-05-19T01:31:29.783Z,19.93
2017-05-19T01:31:51.692Z,19.96
2017-05-19T01:32:13.519Z,19.95
2017-05-19T01:32:35.254Z,19.84
2017-05-19T01:32:56.969Z,19.85
2017-05-19T01:33:18.682Z,19.94
2017-05-19T01:33:40.454Z,19.93
2017-05-19T01:34:02.219Z,20.03
2017-05-19T01:34:24.153Z,20.00
2017-05-19T01:34:45.869Z,20.06
2017-05-19T01:35:07.628Z,20.09
2017-05-19T01:35:29.429Z,20.10
2017-05-19T01:35:51.258Z,20.01
2017-05-19T01:36:12.968Z,19.96
2017-05-19T01:36:34.690Z,20.02
2017-05-19T01:36:56.400Z,20.07
2017-05-19T01:37:18.120Z,20.16
2017-05-19T01:37:39.831Z,20.27
2017-05-19T01:38:01.529Z,20.25
2017-05-19T01:38:23.320Z,20.20
2017-05-19T01:38:45.089Z,20.23
2017-05-19T01:39:06.835Z,20.14
2017-05-19T01:39:28.537Z,20.17
2017-05-19T01:39:50.259Z,20.07
2017-05-19T01:40:12.059Z,20.11
2017-05-19T01:40:33.879Z,20.07
2017-05-19T01:40:55.581Z,20.03
2017-05-19T01:41:17.401Z,20.06
2017-05-19T01:41:39.117Z,20.12
2017-05-19T01:42:00.838Z,20.09
2017-05-19T01:42:22.558Z,20.11
2017-05-19T01:42:44.381Z,20.13
2017-05-19T01:43:06.076Z,20.14
2017-05-19T01:43:27.828Z,20.22
2017-05-19T01:43:49.568Z,20.24
2017-05-19T01:44:11.387Z,20.35
2017-05-19T01:44:33.171Z,20.37
2017-05-19T01:44:54.898Z,20.24
2017-05-19T01:45:21.489Z,20.19
2017-05-19T01:45:43.269Z,20.13
2017-05-19T01:46:05.086Z,20.07
2017-05-19T01:46:26.880Z,19.91
2017-05-19T01:46:48.741Z,19.93
2017-05-19T01:47:10.556Z,19.99
2017-05-19T01:47:32.319Z,20.07
2017-05-19T01:47:54.016Z,20.11
2017-05-19T01:48:15.869Z,20.11
2017-05-19T01:48:37.721Z,20.12
2017-05-19T01:48:59.536Z,20.08
2017-05-19T01:49:21.302Z,20.15
2017-05-19T01:49:43.034Z,20.25
2017-05-19T01:50:04.863Z,20.32
2017-05-19T01:50:36.185Z,20.37
2017-05-19T01:50:58.019Z,20.39
2017-05-19T01:51:19.794Z,20.47
2017-05-19T01:51:41.502Z,20.41
2017-05-19T01:52:03.202Z,20.34
2017-05-19T01:52:25.026Z,20.27
2017-05-19T01:52:46.988Z,20.25
2017-05-19T01:53:08.720Z,20.29
2017-05-19T01:53:30.456Z,20.35
2017-05-19T01:53:52.359Z,20.34
2017-05-19T01:54:14.115Z,20.38
2017-05-19T01:54:35.875Z,20.42
2017-05-19T01:54:57.647Z,20.45
2017-05-19T01:55:19.390Z,20.40
2017-05-19T01:55:41.267Z,20.36
2017-05-19T01:56:02.957Z,20.27
2017-05-19T01:56:24.693Z,20.17
2017-05-19T01:56:46.373Z,20.13
2017-05-19T01:57:08.075Z,20.10
2017-05-19T01:57:29.810Z,20.14
2017-05-19T01:57:51.612Z,20.26
2017-05-19T01:58:13.324Z,20.34
2017-05-19T01:58:35.169Z,20.32
2017-05-19T01:58:56.988Z,20.38
2017-05-19T01:59:18.746Z,20.47
2017-05-19T01:59:40.476Z,20.50
2017-05-19T02:00:02.571Z,20.42
2017-05-19T02:00:24.276Z,20.32
2017-05-19T02:00:46.116Z,20.24
2017-05-19T02:01:07.850Z,20.23
2017-05-19T02:01:29.624Z,20.25
2017-05-19T02:01:51.397Z,20.28
2017-05-19T02:02:13.115Z,20.30
2017-05-19T02:02:34.902Z,20.27
2017-05-19T02:02:56.746Z,20.10
2017-05-19T02:03:28.116Z,20.04
2017-05-19T02:03:49.949Z,19.96
2017-05-19T02:04:11.778Z,19.98
2017-05-19T02:04:33.557Z,19.79
2017-05-19T02:04:55.356Z,19.77
2017-05-19T02:05:31.403Z,19.89
2017-05-19T02:05:53.871Z,19.84
2017-05-19T02:06:15.609Z,19.81
2017-05-19T02:06:37.306Z,19.78
2017-05-19T02:06:59.034Z,19.80
2017-05-19T02:07:25.619Z,19.90
2017-05-19T02:07:47.337Z,19.98
2017-05-19T02:08:09.146Z,19.95
2017-05-19T02:08:30.947Z,20.01
2017-05-19T02:08:52.766Z,19.85
2017-05-19T02:09:51.218Z,19.80
2017-05-19T02:10:13.004Z,19.87
2017-05-19T02:10:34.867Z,19.95
2017-05-19T02:10:56.662Z,20.00
2017-05-19T02:11:18.682Z,20.12
2017-05-19T02:11:40.566Z,20.17
2017-05-19T02:12:02.398Z,20.22
2017-05-19T02:12:24.141Z,20.06
2017-05-19T02:12:45.902Z,19.92
2017-05-19T02:13:07.754Z,19.92
2017-05-19T02:13:29.579Z,19.92
2017-05-19T02:13:51.510Z,20.01
2017-05-19T02:14:13.378Z,20.09
2017-05-19T02:14:38.219Z,20.21
2017-05-19T02:15:00.001Z,20.06
2017-05-19T02:15:21.752Z,19.96
2017-05-19T02:15:43.460Z,20.02
2017-05-19T02:16:05.183Z,20.01
2017-05-19T02:16:26.899Z,20.08
2017-05-19T02:16:48.661Z,20.10
2017-05-19T02:17:10.511Z,20.04
2017-05-19T02:17:32.505Z,19.98
2017-05-19T02:17:54.334Z,19.96
2017-05-19T02:18:16.108Z,20.04
2017-05-19T02:18:37.844Z,20.09
2017-05-19T02:18:59.543Z,19.96
2017-05-19T02:19:21.290Z,19.93
2017-05-19T02:19:43.047Z,19.92
2017-05-19T02:20:04.831Z,19.96
2017-05-19T02:20:26.654Z,19.96
2017-05-19T02:20:48.413Z,19.93
2017-05-19T02:21:10.430Z,19.92
2017-05-19T02:21:32.290Z,19.88
2017-05-19T02:21:54.138Z,19.83
2017-05-19T02:22:15.924Z,19.85
2017-05-19T02:22:37.933Z,19.84
2017-05-19T02:22:59.779Z,19.86
2017-05-19T02:24:40.237Z,19.95
2017-05-19T02:25:49.047Z,19.93
2017-05-19T02:26:50.217Z,19.96
2017-05-19T02:27:12.767Z,19.86
2017-05-19T02:27:34.711Z,19.88
2017-05-19T02:28:01.575Z,19.82
2017-05-19T02:28:32.976Z,19.82
2017-05-19T02:28:54.698Z,19.82
2017-05-19T02:29:19.366Z,19.80
2017-05-19T02:29:41.102Z,19.80
2017-05-19T02:30:08.654Z,19.88
2017-05-19T02:30:34.562Z,20.02
2017-05-19T02:31:38.373Z,19.83
2017-05-19T02:32:00.793Z,19.86
2017-05-19T02:32:22.857Z,19.86
2017-05-19T02:32:47.789Z,19.88
2017-05-19T02:33:23.011Z,19.94
2017-05-19T02:34:00.219Z,19.72
2017-05-19T02:34:26.782Z,19.72
2017-05-19T02:34:56.005Z,19.77
2017-05-19T02:35:17.856Z,19.82
2017-05-19T02:35:39.985Z,19.85
2017-05-19T02:36:01.921Z,19.89
2017-05-19T02:36:23.905Z,19.88
2017-05-19T02:36:53.258Z,19.87
2017-05-19T02:37:22.937Z,19.88
2017-05-19T02:37:52.489Z,19.96
2017-05-19T02:38:18.128Z,20.01
2017-05-19T02:39:19.152Z,20.06
2017-05-19T02:39:47.234Z,19.98
2017-05-19T02:40:36.184Z,19.98
2017-05-19T02:41:02.763Z,19.95
2017-05-19T02:42:46.086Z,20.07
2017-05-19T02:43:07.813Z,20.01
2017-05-19T02:43:34.431Z,20.04
2017-05-19T02:43:59.337Z,20.15
2017-05-19T02:45:00.113Z,20.12
2017-05-19T02:46:32.638Z,20.15
2017-05-19T02:48:12.201Z,20.10
2017-05-19T02:50:20.347Z,20.09
2017-05-19T02:50:54.544Z,20.11
2017-05-19T02:51:50.644Z,19.98
2017-05-19T02:52:54.575Z,20.07
2017-05-19T02:53:30.416Z,20.04
2017-05-19T02:54:02.718Z,20.02
2017-05-19T02:54:24.439Z,19.98
2017-05-19T02:54:51.080Z,19.99
2017-05-19T02:55:53.650Z,20.01
2017-05-19T02:56:20.445Z,20.00
2017-05-19T02:56:44.806Z,19.94
2017-05-19T02:57:42.791Z,19.87
2017-05-19T02:58:09.304Z,19.93
2017-05-19T02:58:35.789Z,19.91
2017-05-19T02:58:57.630Z,19.89
2017-05-19T02:59:26.731Z,19.93
2017-05-19T02:59:56.022Z,19.94
2017-05-19T03:00:23.651Z,19.86
2017-05-19T03:01:42.372Z,20.03
2017-05-19T03:02:06.752Z,20.08
2017-05-19T03:02:29.916Z,20.11
2017-05-19T03:02:57.925Z,20.18
2017-05-19T03:03:29.281Z,20.18
2017-05-19T03:03:58.749Z,20.14
2017-05-19T03:04:56.192Z,20.11
2017-05-19T03:05:18.071Z,20.13
2017-05-19T03:05:45.570Z,20.17
2017-05-19T03:06:54.992Z,20.19
2017-05-19T03:10:45.535Z,19.95
2017-05-19T03:11:07.805Z,19.90
2017-05-19T03:11:37.283Z,19.88
2017-05-19T03:12:28.432Z,19.89
2017-05-19T03:12:56.182Z,19.88
2017-05-19T03:13:27.381Z,19.84
2017-05-19T03:13:49.763Z,19.94
2017-05-19T03:14:12.155Z,19.90
2017-05-19T03:14:48.206Z,19.90
2017-05-19T03:15:32.342Z,20.05
2017-05-19T03:16:01.664Z,20.11
2017-05-19T03:16:35.813Z,20.03
2017-05-19T03:18:18.224Z,19.90
2017-05-19T03:18:40.261Z,19.89
2017-05-19T03:19:06.908Z,19.97
2017-05-19T03:19:34.189Z,19.96
2017-05-19T03:21:42.448Z,19.93
2017-05-19T03:22:16.421Z,19.89
2017-05-19T03:22:47.747Z,19.94
2017-05-19T03:23:37.364Z,20.04
2017-05-19T03:24:08.468Z,20.07
2017-05-19T03:24:34.961Z,20.11
2017-05-19T03:25:24.278Z,20.14
2017-05-19T03:26:27.780Z,20.15
2017-05-19T03:26:52.053Z,20.22
2017-05-19T03:27:13.842Z,20.26
2017-05-19T03:27:35.515Z,20.15
2017-05-19T03:28:27.164Z,20.14
2017-05-19T03:28:49.178Z,20.11
2017-05-19T03:29:14.106Z,20.08
2017-05-19T03:29:43.262Z,20.09
2017-05-19T03:30:44.051Z,20.20
2017-05-19T03:31:05.762Z,20.25
2017-05-19T03:31:31.609Z,20.27
2017-05-19T03:32:04.025Z,20.18
2017-05-19T03:32:30.919Z,20.17
2017-05-19T03:33:00.203Z,20.18
2017-05-19T03:34:34.783Z,20.16
2017-05-19T03:34:56.487Z,20.18
2017-05-19T03:35:18.215Z,20.24
2017-05-19T03:35:39.902Z,20.21
2017-05-19T03:36:01.758Z,20.15
2017-05-19T03:36:23.635Z,20.09
2017-05-19T03:36:48.363Z,20.07
2017-05-19T03:37:10.262Z,20.03
2017-05-19T03:37:32.125Z,20.03
2017-05-19T03:37:54.052Z,20.07
2017-05-19T03:38:15.883Z,20.12
2017-05-19T03:38:37.666Z,20.16
2017-05-19T03:38:59.633Z,20.12
2017-05-19T03:39:21.544Z,20.03
2017-05-19T03:39:43.493Z,20.02
2017-05-19T03:40:05.500Z,20.08
2017-05-19T03:40:27.398Z,20.10
2017-05-19T03:40:49.139Z,20.19
2017-05-19T03:41:11.094Z,20.12
2017-05-19T03:41:33.213Z,20.08
2017-05-19T03:41:55.109Z,19.98
2017-05-19T03:42:17.102Z,20.02
2017-05-19T03:43:05.461Z,19.88
2017-05-19T03:43:30.597Z,19.93
2017-05-19T03:43:52.799Z,19.92
2017-05-19T03:44:14.683Z,19.89
2017-05-19T03:44:36.513Z,19.93
2017-05-19T03:44:58.505Z,19.83
2017-05-19T03:45:20.358Z,19.75
2017-05-19T03:45:42.129Z,19.71
2017-05-19T03:46:04.022Z,19.76
2017-05-19T03:46:28.038Z,19.84
2017-05-19T03:47:30.635Z,19.87
2017-05-19T03:47:52.515Z,19.83
2017-05-19T03:48:14.543Z,19.80
2017-05-19T03:49:02.961Z,19.87
2017-05-19T03:49:24.764Z,19.84
2017-05-19T03:49:46.502Z,19.83
2017-05-19T03:50:08.355Z,19.87
2017-05-19T03:50:30.336Z,19.92
2017-05-19T03:50:52.067Z,19.94
2017-05-19T03:51:16.781Z,20.00
2017-05-19T03:51:38.651Z,20.01
2017-05-19T03:52:00.649Z,20.01
2017-05-19T03:52:22.681Z,19.98
2017-05-19T03:52:47.118Z,19.95
2017-05-19T03:53:09.247Z,19.98
2017-05-19T03:53:31.104Z,20.04
2017-05-19T03:53:53.020Z,20.02
2017-05-19T03:54:14.733Z,19.97
2017-05-19T03:54:41.410Z,19.90
2017-05-19T03:55:03.176Z,19.89
2017-05-19T03:55:24.854Z,19.94
2017-05-19T03:55:46.666Z,19.99
2017-05-19T03:56:18.083Z,20.03
2017-05-19T03:56:39.845Z,20.03
2017-05-19T03:57:01.770Z,20.05
2017-05-19T03:57:23.473Z,20.08
2017-05-19T03:57:45.223Z,20.15
2017-05-19T03:58:07.044Z,20.14
2017-05-19T03:58:28.744Z,20.17
2017-05-19T03:58:50.555Z,20.20
2017-05-19T03:59:12.344Z,20.15
2017-05-19T03:59:34.151Z,20.16
2017-05-19T03:59:55.875Z,20.12
2017-05-19T04:00:17.827Z,20.13
2017-05-19T04:00:39.564Z,20.09
2017-05-19T04:01:01.341Z,20.08
2017-05-19T04:01:32.609Z,20.09
2017-05-19T04:01:54.531Z,20.06
2017-05-19T04:02:16.538Z,20.04
2017-05-19T04:03:05.141Z,20.00
2017-05-19T04:03:27.145Z,20.02
2017-05-19T04:03:49.171Z,20.04
2017-05-19T04:04:11.064Z,19.98
2017-05-19T04:04:33.049Z,19.99
2017-05-19T04:04:54.838Z,20.02
2017-05-19T04:05:16.866Z,20.01
2017-05-19T04:05:38.645Z,20.01
2017-05-19T04:06:00.370Z,20.04
2017-05-19T04:06:22.332Z,19.98
2017-05-19T04:06:44.057Z,20.06
2017-05-19T04:07:05.831Z,20.03
2017-05-19T04:07:27.773Z,20.03
2017-05-19T04:07:50.052Z,20.01
2017-05-19T04:08:11.805Z,20.00
2017-05-19T04:08:33.707Z,19.98
2017-05-19T04:08:55.691Z,20.01
2017-05-19T04:09:17.536Z,19.98
2017-05-19T04:09:39.507Z,19.99
2017-05-19T04:10:01.213Z,19.95
2017-05-19T04:10:23.031Z,20.00
2017-05-19T04:10:44.851Z,20.02
2017-05-19T04:11:06.552Z,20.05
2017-05-19T04:11:28.353Z,20.06
2017-05-19T04:11:50.565Z,20.09
2017-05-19T04:12:12.261Z,20.08
2017-05-19T04:12:34.142Z,20.08
2017-05-19T04:12:56.058Z,20.08
2017-05-19T04:13:17.930Z,20.12
2017-05-19T04:13:39.883Z,20.14
2017-05-19T04:14:01.654Z,20.15
2017-05-19T04:14:23.670Z,20.09
2017-05-19T04:14:45.797Z,20.02
2017-05-19T04:15:07.764Z,20.04
2017-05-19T04:15:29.545Z,20.05
2017-05-19T04:15:51.514Z,19.95
2017-05-19T04:16:13.345Z,19.95
2017-05-19T04:16:38.160Z,20.01
2017-05-19T04:16:59.855Z,20.06
2017-05-19T04:17:24.318Z,20.03
2017-05-19T04:17:46.113Z,20.05
2017-05-19T04:18:07.873Z,20.04
2017-05-19T04:18:29.786Z,20.03
2017-05-19T04:18:51.675Z,20.06
2017-05-19T04:19:13.518Z,20.09
2017-05-19T04:19:35.312Z,20.10
2017-05-19T04:19:59.748Z,20.02
2017-05-19T04:20:21.631Z,19.99
2017-05-19T04:20:43.653Z,20.03
2017-05-19T04:21:05.352Z,20.05
2017-05-19T04:21:27.071Z,20.07
2017-05-19T04:21:48.965Z,20.10
2017-05-19T04:22:10.702Z,20.08
2017-05-19T04:23:16.212Z,19.93
2017-05-19T04:23:38.052Z,19.85
2017-05-19T04:23:59.813Z,19.78
2017-05-19T04:24:21.559Z,19.76
2017-05-19T04:24:52.870Z,19.70
2017-05-19T04:25:14.650Z,19.74
2017-05-19T04:25:36.370Z,19.74
2017-05-19T04:25:58.154Z,19.67
2017-05-19T04:26:20.099Z,19.63
2017-05-19T04:26:41.984Z,19.66
2017-05-19T04:27:03.798Z,19.63
2017-05-19T04:27:25.782Z,19.62
2017-05-19T04:27:47.528Z,19.63
2017-05-19T04:28:09.318Z,19.70
2017-05-19T04:28:31.110Z,19.71
2017-05-19T04:28:52.862Z,19.65
2017-05-19T04:29:14.629Z,19.65
2017-05-19T04:29:36.424Z,19.55
2017-05-19T04:29:58.193Z,19.51
2017-05-19T04:30:20.073Z,19.46
2017-05-19T04:30:41.776Z,19.49
2017-05-19T04:31:03.530Z,19.47
2017-05-19T04:31:25.303Z,19.47
2017-05-19T04:31:47.634Z,19.40
2017-05-19T04:32:09.352Z,19.35
2017-05-19T04:32:43.590Z,19.47
2017-05-19T04:33:05.316Z,19.54
2017-05-19T04:33:27.069Z,19.60
2017-05-19T04:33:48.851Z,19.63
2017-05-19T04:34:10.605Z,19.66
2017-05-19T04:34:38.193Z,19.74
2017-05-19T04:34:59.960Z,19.79
2017-05-19T04:35:21.672Z,19.76
2017-05-19T04:35:43.483Z,19.72
2017-05-19T04:36:10.212Z,19.70
2017-05-19T04:36:36.902Z,19.74
2017-05-19T04:36:58.656Z,19.74
2017-05-19T04:37:20.440Z,19.71
2017-05-19T04:37:42.193Z,19.69
2017-05-19T04:38:03.976Z,19.69
2017-05-19T04:38:25.832Z,19.76
2017-05-19T04:38:47.671Z,19.79
2017-05-19T04:39:14.185Z,19.70
2017-05-19T04:39:35.888Z,19.63
2017-05-19T04:39:57.625Z,19.63
2017-05-19T04:40:19.315Z,19.70
2017-05-19T04:40:41.045Z,19.71
2017-05-19T04:41:02.820Z,19.62
2017-05-19T04:41:24.593Z,19.59
2017-05-19T04:42:44.291Z,19.60
2017-05-19T04:43:13.582Z,19.52
2017-05-19T04:43:40.176Z,19.57
2017-05-19T04:44:01.950Z,19.57
2017-05-19T04:45:04.487Z,19.44
2017-05-19T04:45:31.180Z,19.39
2017-05-19T04:46:02.508Z,19.40
2017-05-19T04:46:28.805Z,19.41
2017-05-19T04:46:50.536Z,19.48
2017-05-19T04:47:12.238Z,19.35
2017-05-19T04:47:33.967Z,19.22
2017-05-19T04:47:55.895Z,19.22
2017-05-19T04:48:17.654Z,19.28
2017-05-19T04:49:23.793Z,19.25
2017-05-19T04:49:45.516Z,19.25
2017-05-19T04:50:10.838Z,19.09
2017-05-19T04:50:37.374Z,19.07
2017-05-19T04:51:02.210Z,19.15
2017-05-19T04:51:26.840Z,19.15
2017-05-19T04:51:48.599Z,19.21
2017-05-19T04:52:15.276Z,19.32
2017-05-19T04:52:37.423Z,19.40
2017-05-19T04:52:59.478Z,19.27
2017-05-19T04:53:21.302Z,19.19
2017-05-19T04:53:43.285Z,19.13
2017-05-19T04:54:13.037Z,19.08
2017-05-19T04:54:34.738Z,19.09
2017-05-19T04:54:56.442Z,19.06
2017-05-19T04:55:20.240Z,19.10
2017-05-19T04:55:46.746Z,19.19
2017-05-19T04:56:09.599Z,19.29
2017-05-19T04:56:36.127Z,19.21
2017-05-19T04:56:58.346Z,19.23
2017-05-19T04:57:20.137Z,19.20
2017-05-19T04:57:44.390Z,19.15
2017-05-19T04:58:07.296Z,19.20
2017-05-19T04:58:29.057Z,19.22
2017-05-19T04:58:51.049Z,19.17
2017-05-19T04:59:15.877Z,19.09
2017-05-19T05:00:24.450Z,18.96
2017-05-19T05:00:55.842Z,19.00
2017-05-19T05:04:17.533Z,19.40
2017-05-19T05:05:50.495Z,19.31
2017-05-19T05:06:13.613Z,19.27
2017-05-19T05:06:45.906Z,19.29
2017-05-19T05:07:12.504Z,19.31
2017-05-19T05:07:37.500Z,19.41
2017-05-19T05:08:25.870Z,19.16
2017-05-19T05:08:55.554Z,19.13
2017-05-19T05:09:17.654Z,19.15
2017-05-19T05:09:47.096Z,19.23
2017-05-19T05:10:44.500Z,19.40
2017-05-19T05:11:16.241Z,19.40
2017-05-19T05:11:38.174Z,19.45
2017-05-19T05:13:18.313Z,19.57
2017-05-19T05:13:52.687Z,19.69
2017-05-19T05:14:14.510Z,19.71
2017-05-19T05:14:36.580Z,19.66
2017-05-19T05:14:59.290Z,19.63
2017-05-19T05:15:28.321Z,19.63
2017-05-19T05:16:21.345Z,19.67
2017-05-19T05:16:52.748Z,19.67
2017-05-19T05:17:49.208Z,19.75
2017-05-19T05:18:42.593Z,19.70
2017-05-19T05:19:07.289Z,19.62
2017-05-19T05:19:38.566Z,19.55
2017-05-19T05:22:08.449Z,19.46
2017-05-19T05:22:35.007Z,19.44
2017-05-19T05:24:03.037Z,19.36
2017-05-19T05:24:29.612Z,19.38
2017-05-19T05:24:51.755Z,19.47
2017-05-19T05:25:47.386Z,19.53
2017-05-19T05:26:09.322Z,19.61
2017-05-19T05:26:36.089Z,19.64
2017-05-19T05:27:03.116Z,19.59
2017-05-19T05:27:54.520Z,19.62
2017-05-19T05:28:21.593Z,19.60
2017-05-19T05:28:47.119Z,19.57
2017-05-19T05:29:08.986Z,19.60
2017-05-19T05:29:35.481Z,19.62
2017-05-19T05:30:41.352Z,19.72
2017-05-19T05:31:07.697Z,19.73
2017-05-19T05:31:34.372Z,19.71
2017-05-19T05:32:32.277Z,19.72
2017-05-19T05:33:01.560Z,19.63
2017-05-19T05:33:37.474Z,19.55
2017-05-19T05:34:02.220Z,19.62
2017-05-19T05:35:31.270Z,19.71
2017-05-19T05:36:24.245Z,19.69
2017-05-19T05:37:19.733Z,19.55
2017-05-19T05:37:46.220Z,19.47
2017-05-19T05:38:17.574Z,19.44
2017-05-19T05:38:39.489Z,19.43
2017-05-19T05:39:10.833Z,19.46
2017-05-19T05:39:35.413Z,19.41
2017-05-19T05:40:06.931Z,19.38
2017-05-19T05:40:33.431Z,19.36
2017-05-19T05:40:55.308Z,19.43
2017-05-19T05:41:57.151Z,19.35
2017-05-19T05:42:50.473Z,19.37
2017-05-19T05:43:12.506Z,19.36
2017-05-19T05:43:42.259Z,19.42
2017-05-19T05:44:04.081Z,19.47
2017-05-19T05:44:25.809Z,19.51
2017-05-19T05:44:50.297Z,19.52
2017-05-19T05:46:31.340Z,19.34
2017-05-19T05:46:56.036Z,19.34
2017-05-19T05:47:18.271Z,19.35
2017-05-19T05:47:44.957Z,19.36
2017-05-19T05:48:14.385Z,19.36
2017-05-19T05:48:39.447Z,19.45
2017-05-19T05:49:01.330Z,19.48
2017-05-19T05:50:36.447Z,19.49
2017-05-19T05:51:57.855Z,19.58
2017-05-19T05:52:22.439Z,19.69
2017-05-19T05:53:18.220Z,19.80
2017-05-19T05:53:47.959Z,19.76
2017-05-19T05:54:51.849Z,19.81
2017-05-19T05:55:23.872Z,19.80
2017-05-19T05:57:50.072Z,19.79
2017-05-19T05:58:12.213Z,19.82
2017-05-19T05:58:38.841Z,19.79
2017-05-19T05:59:08.159Z,19.72
2017-05-19T05:59:34.644Z,19.70
2017-05-19T05:59:56.368Z,19.76